Time,TemperatureF,DewpointF,PressureIn,WindDirection,WindDirectionDegrees,WindSpeedMPH,WindSpeedGustMPH,Humidity,HourlyPrecipIn,Conditions,Clouds,dailyrainin,SolarRadiationWatts/m^2,SoftwareType,DateUTC
2013-11-24 00:01:00,37.0,29.0,-100.00,South,178,17.0,21.0,72,0.00,,,0.00,0.000000,,2013-11-24 08:01:00,
2013-11-24 00:42:00,35.0,28.0,-100.00,South,177,17.0,21.0,76,0.00,,,0.00,0.000000,,2013-11-24 08:42:00,
2013-11-24 00:53:00,35.0,28.0,-100.00,South,177,17.0,21.0,76,0.00,,,0.00,0.000000,,2013-11-24 08:53:00,
2013-11-24 01:02:00,35.0,28.0,-100.00,South,177,17.0,21.0,76,0.00,,,0.00,0.000000,,2013-11-24 09:02:00,
2013-11-24 01:43:00,34.0,27.0,-100.00,South,175,17.0,22.0,75,0.00,,,0.00,0.000000,,2013-11-24 09:43:00,
2013-11-24 01:53:00,34.0,27.0,-100.00,South,175,17.0,22.0,75,0.00,,,0.00,0.000000,,2013-11-24 09:53:00,
2013-11-24 02:03:00,34.0,27.0,-100.00,South,175,17.0,22.0,75,0.00,,,0.00,0.000000,,2013-11-24 10:03:00,
2013-11-24 02:43:00,34.0,26.0,-100.00,South,174,18.0,21.0,73,0.00,,,-99.99,0.000000,,2013-11-24 10:43:00,
2013-11-24 02:53:00,34.0,26.0,-100.00,South,174,18.0,21.0,73,0.00,,,-99.99,0.000000,,2013-11-24 10:53:00,
2013-11-24 03:02:00,34.0,26.0,-100.00,South,174,18.0,21.0,73,0.00,,,-99.99,0.000000,,2013-11-24 11:02:00,
2013-11-24 03:43:00,35.0,26.0,-100.00,South,174,16.0,20.0,68,0.00,,,0.00,0.000000,,2013-11-24 11:43:00,
2013-11-24 03:53:00,35.0,26.0,-100.00,South,174,16.0,20.0,68,0.00,,,0.00,0.000000,,2013-11-24 11:53:00,
2013-11-24 04:02:00,35.0,26.0,-100.00,South,174,16.0,20.0,68,0.00,,,0.00,0.000000,,2013-11-24 12:02:00,
2013-11-24 04:42:00,34.0,25.0,-100.00,South,174,18.0,21.0,70,0.00,,,0.00,0.000000,,2013-11-24 12:42:00,
2013-11-24 04:53:00,34.0,25.0,-100.00,South,174,18.0,21.0,70,0.00,,,0.00,0.000000,,2013-11-24 12:53:00,
2013-11-24 05:01:00,34.0,25.0,-100.00,South,174,18.0,21.0,70,0.00,,,0.00,0.000000,,2013-11-24 13:01:00,
2013-11-24 05:42:00,34.0,26.0,-100.00,South,173,16.0,20.0,72,0.00,,,0.00,0.000000,,2013-11-24 13:42:00,
2013-11-24 05:52:00,34.0,26.0,-100.00,South,173,16.0,20.0,72,0.00,,,0.00,0.000000,,2013-11-24 13:52:00,
2013-11-24 06:01:00,34.0,26.0,-100.00,South,173,16.0,20.0,72,0.00,,,0.00,0.000000,,2013-11-24 14:01:00,
2013-11-24 06:42:00,33.0,26.0,-100.00,South,172,17.0,21.0,74,0.00,,,0.00,0.000000,,2013-11-24 14:42:00,
2013-11-24 06:52:00,33.0,26.0,-100.00,South,172,17.0,21.0,74,0.00,,,0.00,0.000000,,2013-11-24 14:52:00,
2013-11-24 07:02:00,33.0,26.0,-100.00,South,172,17.0,21.0,74,0.00,,,0.00,0.000000,,2013-11-24 15:02:00,
2013-11-24 07:44:00,32.0,26.0,-100.00,South,173,16.0,20.0,79,0.00,,,-99.99,0.000000,,2013-11-24 15:44:00,
2013-11-24 07:53:00,32.0,26.0,-100.00,South,173,16.0,20.0,79,0.00,,,-99.99,0.000000,,2013-11-24 15:53:00,
2013-11-24 08:03:00,32.0,26.0,-100.00,South,173,16.0,20.0,79,0.00,,,-99.99,0.000000,,2013-11-24 16:03:00,
2013-11-24 08:43:00,35.0,27.0,-100.00,South,174,17.0,21.0,73,0.00,,,0.00,19.000000,,2013-11-24 16:43:00,
2013-11-24 08:53:00,35.0,27.0,-100.00,South,174,17.0,21.0,73,0.00,,,0.00,19.000000,,2013-11-24 16:53:00,
2013-11-24 09:02:00,35.0,27.0,-100.00,South,174,17.0,21.0,73,0.00,,,0.00,19.000000,,2013-11-24 17:02:00,
2013-11-24 09:43:00,36.0,28.0,-100.00,South,173,14.0,19.0,72,0.00,,,-99.99,137.000000,,2013-11-24 17:43:00,
2013-11-24 09:52:00,36.0,28.0,-100.00,South,173,14.0,19.0,72,0.00,,,-99.99,137.000000,,2013-11-24 17:52:00,
2013-11-24 10:02:00,36.0,28.0,-100.00,South,173,14.0,19.0,72,0.00,,,-99.99,137.000000,,2013-11-24 18:02:00,
2013-11-24 10:42:00,39.0,28.0,-100.00,South,171,12.0,19.0,65,0.00,,,0.00,107.000000,,2013-11-24 18:42:00,
2013-11-24 10:52:00,39.0,28.0,-100.00,South,171,12.0,19.0,65,0.00,,,0.00,107.000000,,2013-11-24 18:52:00,
2013-11-24 11:02:00,39.0,28.0,-100.00,South,171,12.0,19.0,65,0.00,,,0.00,107.000000,,2013-11-24 19:02:00,
2013-11-24 11:42:00,41.0,29.0,-100.00,South,179,6.0,15.0,62,0.00,,,0.00,103.000000,,2013-11-24 19:42:00,
2013-11-24 11:52:00,41.0,29.0,-100.00,South,179,6.0,15.0,62,0.00,,,0.00,103.000000,,2013-11-24 19:52:00,
2013-11-24 12:02:00,41.0,29.0,-100.00,South,179,6.0,15.0,62,0.00,,,0.00,103.000000,,2013-11-24 20:02:00,
2013-11-24 12:42:00,45.0,30.0,-100.00,South,173,6.0,10.0,56,0.00,,,0.00,231.000000,,2013-11-24 20:42:00,
2013-11-24 12:52:00,45.0,30.0,-100.00,South,173,6.0,10.0,56,0.00,,,0.00,231.000000,,2013-11-24 20:52:00,
2013-11-24 13:01:00,45.0,30.0,-100.00,South,173,6.0,10.0,56,0.00,,,0.00,231.000000,,2013-11-24 21:01:00,
2013-11-24 13:43:00,49.0,32.0,-100.00,South,173,5.0,9.0,52,0.00,,,0.00,463.000000,,2013-11-24 21:43:00,
2013-11-24 13:54:00,49.0,32.0,-100.00,South,173,5.0,9.0,52,0.00,,,0.00,463.000000,,2013-11-24 21:54:00,
2013-11-24 14:03:00,49.0,32.0,-100.00,South,173,5.0,9.0,52,0.00,,,0.00,463.000000,,2013-11-24 22:03:00,
2013-11-24 14:43:00,51.0,33.0,-100.00,SSE,167,5.0,7.0,50,0.00,,,0.00,409.000000,,2013-11-24 22:43:00,
2013-11-24 14:53:00,51.0,33.0,-100.00,SSE,167,5.0,7.0,50,0.00,,,0.00,409.000000,,2013-11-24 22:53:00,
2013-11-24 15:02:00,51.0,33.0,-100.00,SSE,167,5.0,7.0,50,0.00,,,0.00,409.000000,,2013-11-24 23:02:00,
2013-11-24 15:42:00,54.0,34.0,-100.00,North,7,1.0,7.0,47,0.00,,,0.00,269.000000,,2013-11-24 23:42:00,
2013-11-24 15:52:00,54.0,34.0,-100.00,North,7,1.0,7.0,47,0.00,,,0.00,269.000000,,2013-11-24 23:52:00,
2013-11-24 16:02:00,54.0,34.0,-100.00,North,7,1.0,7.0,47,0.00,,,0.00,269.000000,,2013-11-25 00:02:00,
2013-11-24 16:42:00,51.0,35.0,-100.00,NW,308,1.0,4.0,55,0.00,,,0.00,50.000000,,2013-11-25 00:42:00,
2013-11-24 16:52:00,51.0,35.0,-100.00,NW,308,1.0,4.0,55,0.00,,,0.00,50.000000,,2013-11-25 00:52:00,
2013-11-24 17:01:00,51.0,35.0,-100.00,NW,308,1.0,4.0,55,0.00,,,0.00,50.000000,,2013-11-25 01:01:00,
2013-11-24 17:42:00,50.0,34.0,-100.00,South,174,2.0,3.0,54,0.00,,,0.00,8.000000,,2013-11-25 01:42:00,
2013-11-24 17:52:00,50.0,34.0,-100.00,South,174,2.0,3.0,54,0.00,,,0.00,8.000000,,2013-11-25 01:52:00,
2013-11-24 18:01:00,50.0,34.0,-100.00,South,174,2.0,3.0,54,0.00,,,0.00,8.000000,,2013-11-25 02:01:00,
2013-11-24 18:42:00,45.0,34.0,-100.00,South,170,9.0,10.0,66,0.00,,,0.00,0.000000,,2013-11-25 02:42:00,
2013-11-24 18:52:00,45.0,34.0,-100.00,South,170,9.0,10.0,66,0.00,,,0.00,0.000000,,2013-11-25 02:52:00,
2013-11-24 19:01:00,45.0,34.0,-100.00,South,170,9.0,10.0,66,0.00,,,0.00,0.000000,,2013-11-25 03:01:00,
2013-11-24 19:43:00,44.0,34.0,-100.00,South,172,11.0,14.0,69,0.00,,,0.00,0.000000,,2013-11-25 03:43:00,
2013-11-24 19:53:00,44.0,34.0,-100.00,South,172,11.0,14.0,69,0.00,,,0.00,0.000000,,2013-11-25 03:53:00,
2013-11-24 20:03:00,44.0,34.0,-100.00,South,172,11.0,14.0,69,0.00,,,0.00,0.000000,,2013-11-25 04:03:00,
2013-11-24 20:43:00,42.0,34.0,-100.00,South,171,13.0,16.0,72,0.00,,,0.00,0.000000,,2013-11-25 04:43:00,
2013-11-24 20:52:00,42.0,34.0,-100.00,South,171,13.0,16.0,72,0.00,,,0.00,0.000000,,2013-11-25 04:52:00,
2013-11-24 21:02:00,42.0,34.0,-100.00,South,171,13.0,16.0,72,0.00,,,0.00,0.000000,,2013-11-25 05:02:00,
2013-11-24 21:43:00,42.0,34.0,-100.00,South,175,13.0,16.0,72,0.00,,,0.00,0.000000,,2013-11-25 05:43:00,
2013-11-24 21:53:00,42.0,34.0,-100.00,South,175,13.0,16.0,72,0.00,,,0.00,0.000000,,2013-11-25 05:53:00,
2013-11-24 22:02:00,42.0,34.0,-100.00,South,175,13.0,16.0,72,0.00,,,0.00,0.000000,,2013-11-25 06:02:00,
2013-11-24 22:42:00,41.0,33.0,-100.00,South,172,13.0,16.0,74,0.00,,,0.00,0.000000,,2013-11-25 06:42:00,
2013-11-24 22:52:00,41.0,33.0,-100.00,South,172,13.0,16.0,74,0.00,,,0.00,0.000000,,2013-11-25 06:52:00,
2013-11-24 23:01:00,41.0,33.0,-100.00,South,172,13.0,16.0,74,0.00,,,0.00,0.000000,,2013-11-25 07:01:00,
2013-11-24 23:42:00,41.0,34.0,-100.00,South,173,11.0,15.0,76,0.00,,,0.00,0.000000,,2013-11-25 07:42:00,
2013-11-24 23:52:00,41.0,34.0,-100.00,South,173,11.0,15.0,76,0.00,,,0.00,0.000000,,2013-11-25 07:52:00,